Time;durP1;ratioP1;P1;durP2;ratioP2;P2;SDS_P1;SDS_P2;PMS_P1;PMS_P2;Temp;Humidity;BMP_temperature;BMP_pressure;BME280_temperature;BME280_humidity;BME280_pressure;Samples;Min_cycle;Max_cycle;Signal;HPM_P1;HPM_P2
2023/01/30 00:00:49;;;;;;;4.23;3.67;;;;;;;2.80;92.68;100977.34;5035327;28;20578;-57
2023/01/30 00:03:16;;;;;;;12.00;4.00;;;;;;;2.90;91.64;100966.09;5035108;28;20475;-57
2023/01/30 00:05:42;;;;;;;2.70;1.53;;;;;;;2.68;92.43;100957.03;5035110;28;20444;-57
2023/01/30 00:08:09;;;;;;;2.67;2.57;;;;;;;2.61;92.15;100968.34;5034919;28;20546;-57
2023/01/30 00:10:35;;;;;;;5.70;2.40;;;;;;;2.75;92.70;100951.03;5029225;28;20481;-57
2023/01/30 00:13:02;;;;;;;2.90;2.70;;;;;;;2.64;93.03;100937.75;5030262;28;20496;-57
2023/01/30 00:15:28;;;;;;;2.47;2.30;;;;;;;2.77;93.24;100945.81;5026530;28;20448;-57
2023/01/30 00:17:54;;;;;;;2.07;1.60;;;;;;;2.69;92.96;100943.06;5034930;28;20455;-56
2023/01/30 00:20:21;;;;;;;5.70;2.37;;;;;;;2.62;92.43;100941.22;5034789;28;20498;-57
2023/01/30 00:22:48;;;;;;;1.40;1.30;;;;;;;2.68;92.71;100926.44;5034390;28;20558;-57
2023/01/30 00:25:26;;;;;;;7.90;2.53;;;;;;;2.56;93.73;100926.25;5034630;28;20825;-57
2023/01/30 00:27:53;;;;;;;1.63;1.60;;;;;;;2.38;94.67;100921.63;5034930;28;20476;-57
2023/01/30 00:30:19;;;;;;;5.40;0.93;;;;;;;2.68;93.78;100910.69;5034182;28;20497;-57
2023/01/30 00:32:46;;;;;;;3.53;1.33;;;;;;;2.53;94.39;100893.84;5034572;28;20472;-57
2023/01/30 00:35:12;;;;;;;4.47;2.80;;;;;;;2.67;94.18;100887.06;5034310;28;20446;-56
2023/01/30 00:37:39;;;;;;;4.73;1.97;;;;;;;2.46;94.36;100844.78;5034728;28;20451;-57
2023/01/30 00:40:05;;;;;;;2.77;2.20;;;;;;;2.45;94.49;100854.38;5004344;28;20492;-56
2023/01/30 00:48:02;;;;;;;2.10;1.77;;;;;;;2.70;95.00;100881.84;5034312;28;20444;-57
2023/01/30 00:50:41;;;;;;;2.50;2.40;;;;;;;2.62;94.49;100884.38;5034162;28;20443;-57
2023/01/30 00:53:09;;;;;;;4.87;1.27;;;;;;;2.60;95.23;100864.19;5031163;28;20468;-56
2023/01/30 00:55:36;;;;;;;0.80;0.67;;;;;;;2.50;94.37;100857.97;5034343;28;20458;-57
2023/01/30 00:58:02;;;;;;;1.63;1.53;;;;;;;2.57;95.40;100854.53;5033986;28;20870;-57
2023/01/30 01:00:29;;;;;;;1.63;1.53;;;;;;;2.50;95.17;100857.97;5033965;28;20491;-51
2023/01/30 01:02:55;;;;;;;5.13;1.97;;;;;;;2.49;95.46;100857.97;5033821;28;20819;-52
2023/01/30 01:05:22;;;;;;;3.40;3.30;;;;;;;2.43;96.13;100858.72;5034447;28;20502;-52
2023/01/30 01:07:48;;;;;;;19.23;2.40;;;;;;;2.50;95.99;100860.59;5033981;28;20458;-51
2023/01/30 01:10:15;;;;;;;6.03;2.70;;;;;;;2.52;96.33;100864.13;5028187;28;20787;-52
2023/01/30 01:12:43;;;;;;;3.87;3.57;;;;;;;2.62;96.34;100857.25;5031842;28;20483;-52
2023/01/30 01:15:13;;;;;;;2.00;1.90;;;;;;;2.54;96.68;100849.28;5023338;28;20542;-52
2023/01/30 01:17:40;;;;;;;2.93;2.13;;;;;;;2.42;96.65;100864.84;5033882;28;20595;-52
2023/01/30 01:20:08;;;;;;;1.47;1.13;;;;;;;2.41;96.84;100872.69;5033689;28;20894;-52
2023/01/30 01:22:35;;;;;;;3.40;2.30;;;;;;;2.43;96.65;100848.25;5033425;28;20471;-51
2023/01/30 01:25:02;;;;;;;2.70;1.57;;;;;;;2.32;97.50;100848.09;5033744;28;20815;-52
2023/01/30 01:27:28;;;;;;;3.37;2.13;;;;;;;2.43;96.97;100842.13;5033424;28;20509;-51
2023/01/30 01:29:55;;;;;;;5.27;2.43;;;;;;;2.52;96.57;100830.00;5033814;28;20452;-52
2023/01/30 01:32:22;;;;;;;4.20;2.50;;;;;;;2.76;95.48;100826.81;5033442;28;20473;-52
2023/01/30 01:34:48;;;;;;;13.00;1.90;;;;;;;2.44;96.66;100830.75;5033620;28;20455;-52
2023/01/30 01:37:15;;;;;;;9.43;1.97;;;;;;;2.48;96.88;100817.72;5033253;28;20491;-52
2023/01/30 01:42:32;;;;;;;2.00;1.80;;;;;;;2.54;96.90;100816.91;5032580;28;20995;-52
2023/01/30 01:45:19;;;;;;;1.73;1.63;;;;;;;2.59;96.71;100817.81;5020024;28;21015;-51
2023/01/30 01:48:01;;;;;;;2.70;1.27;;;;;;;2.71;97.05;100811.84;5033807;28;20501;-52
2023/01/30 01:50:39;;;;;;;1.43;1.33;;;;;;;2.58;97.15;100816.06;5015732;28;20527;-52
2023/01/30 01:53:08;;;;;;;2.80;2.33;;;;;;;2.77;96.21;100801.44;5029368;28;20985;-52
2023/01/30 01:55:37;;;;;;;3.60;2.90;;;;;;;2.63;97.00;100796.03;5033081;28;20798;-52
2023/01/30 01:58:12;;;;;;;4.33;3.70;;;;;;;2.67;96.76;100809.19;5032968;28;20455;-52
2023/01/30 02:00:39;;;;;;;9.53;3.10;;;;;;;2.74;96.84;100798.75;5032939;28;20490;-52
2023/01/30 02:03:11;;;;;;;5.83;2.87;;;;;;;2.62;96.82;100800.41;5033015;28;20467;-53
2023/01/30 02:05:43;;;;;;;3.23;2.93;;;;;;;2.56;97.51;100808.19;5033104;28;20474;-52
2023/01/30 02:08:21;;;;;;;9.40;1.33;;;;;;;2.63;97.57;100798.66;5032874;28;20466;-51
2023/01/30 02:11:09;;;;;;;2.40;2.30;;;;;;;2.62;97.76;100792.53;5026253;28;20446;-52
2023/01/30 02:13:36;;;;;;;9.93;3.70;;;;;;;2.71;97.79;100765.50;5012985;28;21070;-52
2023/01/30 02:16:05;;;;;;;0.73;0.73;;;;;;;2.80;97.08;100762.97;5026192;28;20955;-52
2023/01/30 02:18:34;;;;;;;2.50;2.40;;;;;;;2.75;97.00;100759.44;5022425;28;20820;-51
2023/01/30 02:21:22;;;;;;;3.17;2.93;;;;;;;2.55;97.74;100751.31;5032562;28;20491;-52
2023/01/30 02:24:16;;;;;;;5.03;3.83;;;;;;;2.79;96.84;100755.09;5032951;28;20444;-51
2023/01/30 02:27:07;;;;;;;5.10;3.67;;;;;;;2.79;97.35;100760.34;5023149;28;20551;-52
2023/01/30 02:30:08;;;;;;;1.67;1.57;;;;;;;2.94;97.08;100757.88;5026014;28;20445;-52
2023/01/30 02:32:58;;;;;;;2.10;1.50;;;;;;;2.79;97.33;100749.84;5030699;28;20934;-52
2023/01/30 02:35:50;;;;;;;2.00;1.90;;;;;;;2.75;97.47;100754.19;5032524;28;20456;-52
2023/01/30 02:38:40;;;;;;;1.57;1.23;;;;;;;2.73;97.96;100755.00;5032463;28;21002;-52
2023/01/30 02:41:23;;;;;;;3.30;2.30;;;;;;;2.82;97.26;100761.25;5032555;28;20488;-52
2023/01/30 02:44:10;;;;;;;6.83;2.47;;;;;;;2.88;96.97;100761.31;5028568;28;20961;-52
2023/01/30 02:46:53;;;;;;;1.40;1.30;;;;;;;2.82;97.77;100748.13;5025676;28;20473;-52
2023/01/30 02:49:28;;;;;;;5.43;2.70;;;;;;;2.95;98.30;100743.88;5032554;28;20444;-51
2023/01/30 02:51:57;;;;;;;1.53;1.43;;;;;;;2.78;98.54;100729.72;5032206;28;21339;-54
2023/01/30 02:54:24;;;;;;;2.73;2.50;;;;;;;2.98;98.25;100742.16;5029082;28;20546;-52
2023/01/30 02:56:53;;;;;;;1.53;1.47;;;;;;;2.82;97.87;100740.25;5032223;28;20454;-52
2023/01/30 02:59:27;;;;;;;0.93;0.93;;;;;;;3.02;98.18;100735.19;5032376;28;20443;-54
2023/01/30 03:02:15;;;;;;;2.00;1.90;;;;;;;2.87;97.89;100737.66;5019331;28;20463;-52
2023/01/30 03:04:54;;;;;;;0.87;0.87;;;;;;;3.06;97.13;100736.09;5018960;28;20534;-51
2023/01/30 03:07:46;;;;;;;1.70;1.60;;;;;;;2.91;97.60;100731.59;5031998;28;20536;-52
2023/01/30 03:10:17;;;;;;;2.70;2.50;;;;;;;2.75;97.82;100733.19;5017984;28;20448;-53
2023/01/30 03:12:46;;;;;;;4.77;4.47;;;;;;;2.77;98.63;100741.06;5026794;28;20477;-51
2023/01/30 03:15:24;;;;;;;9.60;2.60;;;;;;;2.82;98.40;100742.00;5022356;28;20475;-52
2023/01/30 03:17:51;;;;;;;3.40;1.60;;;;;;;2.92;97.46;100749.97;5031826;28;20451;-52
2023/01/30 03:20:19;;;;;;;2.20;2.10;;;;;;;3.18;97.47;100759.84;5032215;28;20915;-51
2023/01/30 03:22:46;;;;;;;1.30;1.13;;;;;;;3.02;97.15;100756.22;5031970;28;20554;-52
2023/01/30 03:25:19;;;;;;;3.07;2.87;;;;;;;3.13;97.23;100758.91;5032144;28;20452;-51
2023/01/30 03:27:49;;;;;;;4.53;2.03;;;;;;;3.10;97.34;100740.50;5031992;28;20987;-52
2023/01/30 03:30:15;;;;;;;3.63;2.83;;;;;;;2.96;98.38;100730.75;5031707;28;20539;-54
2023/01/30 03:32:42;;;;;;;4.37;2.73;;;;;;;3.06;98.26;100728.22;5031822;28;20567;-52
2023/01/30 03:35:08;;;;;;;1.30;1.20;;;;;;;3.06;98.39;100723.84;5031989;28;20491;-52
2023/01/30 03:37:35;;;;;;;2.53;2.33;;;;;;;2.95;97.85;100715.00;5031757;28;20929;-52
2023/01/30 03:40:03;;;;;;;1.80;1.70;;;;;;;3.01;98.15;100730.78;5019708;28;20492;-51
2023/01/30 03:42:29;;;;;;;2.00;1.90;;;;;;;2.94;98.67;100742.13;5031794;28;20510;-52
2023/01/30 03:44:56;;;;;;;3.40;3.13;;;;;;;3.09;97.90;100746.63;5018322;28;20463;-52
2023/01/30 03:47:22;;;;;;;2.87;2.20;;;;;;;3.18;97.91;100728.34;5031650;28;20446;-51
2023/01/30 03:49:49;;;;;;;8.70;4.30;;;;;;;3.16;98.04;100728.31;5031860;28;20535;-52
2023/01/30 03:52:15;;;;;;;3.07;2.80;;;;;;;3.00;98.02;100729.03;5031885;28;20471;-52
2023/01/30 03:54:42;;;;;;;1.90;1.50;;;;;;;3.24;98.00;100715.22;5028453;28;20522;-52
2023/01/30 03:57:08;;;;;;;4.10;2.70;;;;;;;3.07;98.82;100725.59;5031935;28;20452;-52
2023/01/30 03:59:34;;;;;;;5.77;3.27;;;;;;;3.34;97.55;100716.19;5031467;28;20456;-52
2023/01/30 04:02:01;;;;;;;7.70;5.80;;;;;;;3.17;97.91;100706.44;5031711;28;20478;-51
2023/01/30 04:04:27;;;;;;;3.37;3.17;;;;;;;3.19;98.97;100704.69;5031764;28;20959;-51
2023/01/30 04:06:54;;;;;;;2.80;2.50;;;;;;;3.04;98.67;100707.19;5034764;28;20453;-51
2023/01/30 04:09:20;;;;;;;2.90;1.63;;;;;;;2.98;98.88;100688.75;5029219;28;20462;-52
2023/01/30 04:11:47;;;;;;;2.27;2.17;;;;;;;2.96;99.10;100687.88;5034908;28;21041;-52
2023/01/30 04:14:13;;;;;;;3.37;3.27;;;;;;;2.96;99.32;100687.88;5021814;28;20479;-51
2023/01/30 04:16:40;;;;;;;2.87;2.67;;;;;;;2.91;99.71;100686.97;5035148;28;20456;-52
2023/01/30 04:19:06;;;;;;;5.77;2.40;;;;;;;3.04;99.46;100686.19;5034743;28;20494;-51
2023/01/30 04:21:33;;;;;;;6.53;1.70;;;;;;;3.19;99.22;100693.31;5034911;28;20514;-51
2023/01/30 04:23:59;;;;;;;2.00;1.80;;;;;;;3.22;98.81;100681.09;5034688;28;20920;-53
2023/01/30 04:26:26;;;;;;;3.30;2.93;;;;;;;3.21;98.99;100674.06;5034764;28;20451;-52
2023/01/30 04:28:52;;;;;;;4.27;2.73;;;;;;;3.24;98.87;100671.47;5034873;28;20452;-52
2023/01/30 04:31:19;;;;;;;2.60;1.80;;;;;;;3.21;98.39;100660.94;5034750;28;20444;-51
2023/01/30 04:33:45;;;;;;;11.30;3.87;;;;;;;3.23;97.62;100676.69;5034544;28;20474;-52
2023/01/30 04:36:12;;;;;;;5.20;2.90;;;;;;;3.13;98.89;100662.63;5034554;28;20937;-51
2023/01/30 04:38:38;;;;;;;1.50;1.50;;;;;;;3.18;98.52;100660.03;5033043;28;20463;-51
2023/01/30 04:41:05;;;;;;;3.37;3.10;;;;;;;2.99;98.75;100648.50;5024246;28;20498;-52
2023/01/30 04:43:31;;;;;;;9.83;2.90;;;;;;;3.10;98.84;100640.72;5013770;28;20476;-51
2023/01/30 04:45:58;;;;;;;2.33;1.90;;;;;;;3.03;98.90;100641.56;5024550;28;20462;-51
2023/01/30 04:48:25;;;;;;;1.70;1.60;;;;;;;2.86;99.46;100639.66;5034301;28;20459;-51
2023/01/30 04:50:53;;;;;;;6.43;4.07;;;;;;;2.95;99.26;100647.59;5034365;28;20448;-51
2023/01/30 04:53:20;;;;;;;2.33;2.23;;;;;;;3.05;99.41;100640.69;5030936;28;20479;-51
2023/01/30 04:55:47;;;;;;;1.27;1.27;;;;;;;2.92;99.52;100621.34;5034124;28;20903;-51
2023/01/30 04:58:15;;;;;;;1.83;1.70;;;;;;;2.84;100.00;100627.38;5020775;28;20975;-52
2023/01/30 05:00:41;;;;;;;2.93;1.83;;;;;;;2.72;100.00;100630.78;5034255;28;20491;-52
2023/01/30 05:03:08;;;;;;;2.70;1.80;;;;;;;2.76;100.00;100627.34;5033862;28;20810;-52
2023/01/30 05:05:34;;;;;;;1.17;1.13;;;;;;;2.84;100.00;100636.13;5033949;28;20820;-52
2023/01/30 05:08:01;;;;;;;1.60;1.60;;;;;;;3.08;99.77;100648.59;5033742;28;20960;-52
2023/01/30 05:10:27;;;;;;;2.33;2.20;;;;;;;3.07;99.64;100659.94;5028621;28;20452;-52
2023/01/30 05:12:54;;;;;;;1.07;1.07;;;;;;;3.12;99.25;100652.97;5029568;28;20558;-52
2023/01/30 05:15:20;;;;;;;1.27;1.23;;;;;;;2.93;100.00;100645.84;5014226;28;20456;-53
2023/01/30 05:17:47;;;;;;;12.93;2.77;;;;;;;2.99;100.00;100643.25;5030213;28;20451;-51
2023/01/30 05:20:13;;;;;;;2.77;2.67;;;;;;;2.85;100.00;100642.25;5033843;28;20829;-52
2023/01/30 05:22:40;;;;;;;2.47;1.07;;;;;;;3.18;100.00;100636.41;5033469;28;20479;-51
2023/01/30 05:25:07;;;;;;;1.60;1.30;;;;;;;3.13;99.54;100641.59;5033601;28;20964;-52
2023/01/30 05:27:33;;;;;;;1.93;1.53;;;;;;;3.00;100.00;100644.13;5033478;28;20984;-52
2023/01/30 05:30:00;;;;;;;5.00;2.87;;;;;;;3.03;99.83;100633.66;5033467;28;20451;-52
2023/01/30 05:32:29;;;;;;;3.50;1.70;;;;;;;2.97;100.00;100642.38;5033415;28;20486;-52
2023/01/30 05:34:56;;;;;;;2.90;2.70;;;;;;;3.12;100.00;100638.97;5033504;28;21161;-53
2023/01/30 05:37:23;;;;;;;3.50;1.97;;;;;;;3.22;99.04;100641.69;5033173;28;20451;-52
2023/01/30 05:39:49;;;;;;;1.93;1.80;;;;;;;3.12;99.62;100644.22;5022447;28;20543;-52
2023/01/30 05:42:16;;;;;;;1.80;1.70;;;;;;;3.04;100.00;100643.31;5031905;28;20499;-52
2023/01/30 05:44:42;;;;;;;1.50;1.23;;;;;;;3.27;99.50;100639.94;5021329;28;20456;-52
2023/01/30 05:47:09;;;;;;;1.80;1.33;;;;;;;3.17;98.79;100634.66;5032002;28;20820;-52
2023/01/30 05:49:35;;;;;;;2.30;2.20;;;;;;;3.13;98.85;100628.47;5032984;28;20510;-54
2023/01/30 05:52:01;;;;;;;1.67;1.57;;;;;;;2.92;99.88;100605.59;5032805;28;20468;-52
2023/01/30 05:54:28;;;;;;;1.20;1.20;;;;;;;2.96;99.71;100593.34;5029932;28;20467;-53
2023/01/30 05:56:54;;;;;;;2.67;2.47;;;;;;;2.98;100.00;100570.59;5033005;28;20448;-52
2023/01/30 05:59:21;;;;;;;2.30;2.20;;;;;;;3.03;99.84;100566.28;5032995;28;20808;-53
2023/01/30 06:01:47;;;;;;;2.33;2.13;;;;;;;3.01;100.00;100575.88;5032719;28;21051;-52
2023/01/30 06:04:14;;;;;;;3.47;3.23;;;;;;;3.18;99.68;100581.25;5032984;28;20447;-54
2023/01/30 06:06:40;;;;;;;1.70;1.60;;;;;;;3.24;99.58;100574.28;5032799;28;20482;-52
2023/01/30 06:09:09;;;;;;;1.57;1.50;;;;;;;3.27;99.07;100581.28;5027629;28;20541;-52
2023/01/30 06:11:35;;;;;;;3.67;3.47;;;;;;;3.21;98.83;100583.88;5032372;28;20944;-53
2023/01/30 06:14:02;;;;;;;0.67;0.67;;;;;;;3.20;99.70;100575.13;5020328;28;20453;-52
2023/01/30 06:16:28;;;;;;;0.50;0.50;;;;;;;3.34;99.44;100576.97;5033352;28;20483;-52
2023/01/30 06:18:55;;;;;;;1.03;1.03;;;;;;;3.20;99.65;100580.38;5032772;28;20535;-52
2023/01/30 06:21:21;;;;;;;1.90;1.80;;;;;;;3.21;99.30;100574.25;5032679;28;20855;-53
2023/01/30 06:23:48;;;;;;;2.53;0.70;;;;;;;3.16;99.49;100578.63;5032587;28;20972;-52
2023/01/30 06:26:14;;;;;;;3.40;3.20;;;;;;;3.29;99.60;100595.34;5032785;28;20455;-52
2023/01/30 06:28:41;;;;;;;2.50;1.40;;;;;;;3.28;99.89;100594.41;5032176;28;20459;-54
2023/01/30 06:31:08;;;;;;;0.70;0.70;;;;;;;3.10;100.00;100582.94;5032488;28;20443;-53
2023/01/30 06:33:35;;;;;;;1.93;0.73;;;;;;;3.14;100.00;100580.34;5032134;28;20850;-52
2023/01/30 06:36:01;;;;;;;2.33;2.03;;;;;;;3.07;100.00;100586.44;5032632;28;20455;-52
2023/01/30 06:38:28;;;;;;;8.00;2.53;;;;;;;3.35;100.00;100595.34;5032382;28;20471;-53
2023/01/30 06:40:54;;;;;;;6.07;4.83;;;;;;;3.26;100.00;100580.41;5019888;28;20498;-52
2023/01/30 06:43:20;;;;;;;1.13;1.13;;;;;;;3.47;99.40;100576.16;5032020;28;20472;-53
2023/01/30 06:45:47;;;;;;;1.57;0.83;;;;;;;3.43;99.70;100567.38;5019787;28;20455;-52
2023/01/30 06:48:13;;;;;;;2.10;2.00;;;;;;;3.43;100.00;100550.75;5032096;28;20447;-52
2023/01/30 06:50:40;;;;;;;1.17;1.17;;;;;;;3.20;100.00;100575.13;5032600;28;20543;-52
2023/01/30 06:53:07;;;;;;;4.57;2.50;;;;;;;3.36;100.00;100572.59;5029458;28;20579;-52
2023/01/30 06:55:34;;;;;;;2.60;2.33;;;;;;;3.36;100.00;100573.47;5032129;28;20956;-52
2023/01/30 06:58:02;;;;;;;4.20;1.00;;;;;;;3.30;100.00;100565.56;5031963;28;20459;-52
2023/01/30 07:00:29;;;;;;;1.40;1.30;;;;;;;3.43;100.00;100571.75;5032046;28;20455;-52
2023/01/30 07:02:56;;;;;;;19.37;1.47;;;;;;;3.47;100.00;100574.41;5031802;28;20846;-53
2023/01/30 07:05:22;;;;;;;1.87;1.30;;;;;;;3.63;100.00;100556.94;5032279;28;20456;-53
2023/01/30 07:07:49;;;;;;;1.40;0.93;;;;;;;3.51;100.00;100559.50;5032090;28;20475;-53
2023/01/30 07:10:15;;;;;;;1.27;1.23;;;;;;;3.43;100.00;100551.63;5026443;28;20455;-52
2023/01/30 07:12:45;;;;;;;7.50;2.00;;;;;;;3.55;100.00;100553.41;5030343;28;20494;-56
2023/01/30 07:15:12;;;;;;;3.30;1.57;;;;;;;3.56;100.00;100563.94;5021438;28;20456;-57
2023/01/30 07:17:41;;;;;;;2.00;0.83;;;;;;;3.40;100.00;100551.56;5031710;28;20840;-57
2023/01/30 07:20:09;;;;;;;2.97;2.33;;;;;;;3.37;100.00;100566.47;5032519;28;20458;-57
2023/01/30 07:22:36;;;;;;;1.27;1.27;;;;;;;3.26;100.00;100575.16;5031703;28;20573;-57
2023/01/30 07:25:02;;;;;;;1.50;1.40;;;;;;;3.29;100.00;100587.44;5032121;28;20448;-56
2023/01/30 07:27:29;;;;;;;2.43;2.20;;;;;;;3.27;100.00;100582.16;5031999;28;20476;-57
2023/01/30 07:29:55;;;;;;;12.53;1.90;;;;;;;3.30;100.00;100554.19;5031821;28;20447;-57
2023/01/30 07:32:22;;;;;;;1.83;1.73;;;;;;;3.29;100.00;100563.81;5031960;28;20468;-57
2023/01/30 07:34:48;;;;;;;1.93;1.73;;;;;;;3.44;100.00;100579.66;5014220;28;20452;-57
2023/01/30 07:37:14;;;;;;;1.43;1.40;;;;;;;3.43;100.00;100572.63;5031950;28;20547;-57
2023/01/30 07:39:41;;;;;;;2.20;1.70;;;;;;;3.50;100.00;100571.78;5021990;28;20467;-57
2023/01/30 07:42:08;;;;;;;1.80;1.70;;;;;;;3.47;100.00;100560.38;5032351;28;20487;-57
2023/01/30 07:44:34;;;;;;;1.20;1.10;;;;;;;3.52;100.00;100571.78;5024657;28;20452;-57
2023/01/30 07:47:00;;;;;;;2.73;1.47;;;;;;;3.62;100.00;100570.97;5033372;28;20443;-56
2023/01/30 07:49:27;;;;;;;1.57;1.47;;;;;;;3.58;100.00;100576.22;5035733;28;20452;-57
2023/01/30 07:51:54;;;;;;;0.90;0.90;;;;;;;3.84;100.00;100587.72;5035277;28;20490;-56
2023/01/30 07:54:20;;;;;;;1.03;1.03;;;;;;;3.69;100.00;100580.59;5032259;28;20455;-56
2023/01/30 07:56:47;;;;;;;1.07;0.60;;;;;;;3.96;100.00;100587.72;5035096;28;20450;-57
2023/01/30 07:59:13;;;;;;;2.20;2.10;;;;;;;3.76;100.00;100579.78;5035224;28;20990;-57
2023/01/30 08:01:40;;;;;;;0.77;0.77;;;;;;;3.78;100.00;100562.25;5035025;28;20487;-57
2023/01/30 08:04:06;;;;;;;1.63;1.53;;;;;;;3.90;100.00;100578.94;5035269;28;20829;-57
2023/01/30 08:06:37;;;;;;;0.73;0.73;;;;;;;4.09;100.00;100575.47;5035071;28;20452;-57
2023/01/30 08:09:05;;;;;;;0.50;0.50;;;;;;;3.99;100.00;100576.34;5030296;28;20445;-57
2023/01/30 08:11:32;;;;;;;0.93;0.93;;;;;;;3.95;100.00;100577.19;5034164;28;20494;-57
2023/01/30 08:13:58;;;;;;;0.50;0.50;;;;;;;4.17;100.00;100568.50;5022474;28;20857;-57
2023/01/30 08:16:25;;;;;;;0.97;0.90;;;;;;;3.94;100.00;100567.56;5034899;28;20914;-57
2023/01/30 08:18:51;;;;;;;1.43;1.33;;;;;;;3.91;100.00;100544.75;5035035;28;20448;-56
2023/01/30 08:21:18;;;;;;;0.93;0.93;;;;;;;3.95;100.00;100545.63;5021884;28;20558;-56
2023/01/30 08:23:44;;;;;;;6.93;0.67;;;;;;;4.09;100.00;100547.41;5021548;28;20469;-57
2023/01/30 08:26:10;;;;;;;0.40;0.40;;;;;;;4.22;100.00;100542.19;5021527;28;20462;-57
2023/01/30 08:28:38;;;;;;;1.43;0.70;;;;;;;4.03;100.00;100547.44;5021394;28;20448;-57
2023/01/30 08:31:08;;;;;;;0.30;0.30;;;;;;;4.18;100.00;100533.41;5035227;28;20447;-58
2023/01/30 08:33:35;;;;;;;0.43;0.37;;;;;;;4.47;100.00;100544.84;5034660;28;20981;-57
2023/01/30 08:36:02;;;;;;;2.00;0.60;;;;;;;4.28;100.00;100539.56;5034825;28;20452;-57
2023/01/30 08:38:28;;;;;;;0.30;0.20;;;;;;;4.38;100.00;100533.41;5034400;28;20452;-57
2023/01/30 08:40:56;;;;;;;1.10;1.10;;;;;;;4.33;100.00;100536.06;5021833;28;20510;-57
2023/01/30 08:43:23;;;;;;;0.80;0.80;;;;;;;4.39;100.00;100543.09;5033657;28;20472;-57
2023/01/30 08:45:54;;;;;;;0.90;0.40;;;;;;;4.24;100.00;100541.31;5022702;28;20456;-56
2023/01/30 08:48:21;;;;;;;13.37;0.57;;;;;;;4.49;99.89;100560.63;5034123;28;20527;-56
2023/01/30 08:50:53;;;;;;;0.70;0.70;;;;;;;4.49;100.00;100560.63;5034334;28;20452;-56
2023/01/30 08:53:20;;;;;;;0.30;0.30;;;;;;;4.31;100.00;100544.84;5030719;28;20479;-57
2023/01/30 08:55:50;;;;;;;0.87;0.40;;;;;;;4.47;100.00;100552.72;5034456;28;20447;-57
2023/01/30 08:58:16;;;;;;;0.80;0.80;;;;;;;4.52;100.00;100544.81;5034439;28;20450;-57
2023/01/30 09:00:43;;;;;;;0.53;0.53;;;;;;;4.40;100.00;100552.75;5033346;28;20450;-57
2023/01/30 09:03:13;;;;;;;0.63;0.40;;;;;;;4.62;100.00;100545.72;5033626;28;20543;-57
2023/01/30 09:05:39;;;;;;;1.47;1.20;;;;;;;4.50;99.54;100527.28;5022593;28;20521;-56
2023/01/30 09:08:06;;;;;;;1.47;0.93;;;;;;;4.56;99.71;100536.06;5031933;28;20447;-57
2023/01/30 09:10:32;;;;;;;1.17;1.17;;;;;;;4.57;99.96;100527.28;5028304;28;20540;-56
2023/01/30 09:12:59;;;;;;;1.77;1.50;;;;;;;4.59;100.00;100517.63;5026899;28;20483;-57
2023/01/30 09:15:25;;;;;;;0.30;0.20;;;;;;;4.61;100.00;100507.09;5025519;28;20513;-57
2023/01/30 09:17:52;;;;;;;0.70;0.30;;;;;;;4.72;99.03;100518.50;5033599;28;20451;-57
2023/01/30 09:20:19;;;;;;;2.10;0.40;;;;;;;4.71;100.00;100520.25;5033687;28;20476;-57
2023/01/30 09:22:46;;;;;;;0.30;0.20;;;;;;;4.70;99.62;100539.56;5033641;28;20871;-57
2023/01/30 09:25:12;;;;;;;0.63;0.63;;;;;;;4.84;99.52;100536.06;5033620;28;20506;-57
2023/01/30 09:27:40;;;;;;;0.20;0.13;;;;;;;4.91;98.81;100525.50;5033277;28;20479;-57
2023/01/30 09:30:07;;;;;;;2.53;0.50;;;;;;;4.71;99.42;100514.13;5033674;28;20451;-57
2023/01/30 09:32:36;;;;;;;0.47;0.47;;;;;;;4.93;98.42;100531.63;5033390;28;20467;-56
2023/01/30 09:35:03;;;;;;;0.40;0.30;;;;;;;4.86;97.90;100523.75;5033543;28;20456;-56
2023/01/30 09:37:30;;;;;;;0.70;0.63;;;;;;;4.98;98.83;100527.25;5033321;28;20447;-57
2023/01/30 09:39:56;;;;;;;1.07;0.50;;;;;;;4.94;98.36;100525.50;5021499;28;20453;-57
2023/01/30 09:42:38;;;;;;;0.30;0.20;;;;;;;4.89;98.89;100519.34;5032522;28;20999;-57
2023/01/30 09:45:23;;;;;;;0.37;0.37;;;;;;;4.91;98.91;100538.66;5020267;28;20538;-57
2023/01/30 09:48:37;;;;;;;0.20;0.20;;;;;;;5.06;98.14;100535.13;5033226;28;20455;-57
2023/01/30 09:51:15;;;;;;;0.67;0.53;;;;;;;4.97;98.23;100537.78;5016974;28;20491;-57
2023/01/30 09:53:57;;;;;;;0.57;0.30;;;;;;;5.22;97.46;100538.63;5022820;28;20482;-57
2023/01/30 09:56:26;;;;;;;0.30;0.20;;;;;;;5.05;98.47;100550.03;5031813;28;20456;-57
2023/01/30 09:58:59;;;;;;;0.40;0.20;;;;;;;5.13;98.24;100549.16;5021527;28;20443;-57
2023/01/30 10:01:37;;;;;;;0.27;0.23;;;;;;;5.18;98.12;100544.75;5032787;28;20488;-57
2023/01/30 10:04:30;;;;;;;1.03;0.63;;;;;;;5.17;97.88;100541.25;5032244;28;20447;-57
2023/01/30 10:07:05;;;;;;;0.50;0.50;;;;;;;5.21;97.72;100543.00;5021276;28;20448;-57
2023/01/30 10:09:56;;;;;;;2.03;1.40;;;;;;;5.31;96.92;100539.44;5025888;28;20972;-57
2023/01/30 10:12:36;;;;;;;0.60;0.60;;;;;;;5.43;96.87;100529.75;5032553;28;20483;-57
2023/01/30 10:15:05;;;;;;;0.57;0.43;;;;;;;5.28;97.34;100526.28;5020998;28;20450;-56
2023/01/30 10:17:44;;;;;;;0.30;0.20;;;;;;;5.34;97.80;100530.63;5019368;28;20890;-57
2023/01/30 10:20:49;;;;;;;0.30;0.20;;;;;;;5.31;96.99;100531.53;5032672;28;20452;-57
2023/01/30 10:23:31;;;;;;;0.40;0.40;;;;;;;5.61;96.56;100532.28;4933013;29;20499;-56
2023/01/30 10:26:07;;;;;;;1.90;0.30;;;;;;;5.50;97.59;100540.28;5023389;28;20494;-57
2023/01/30 10:29:00;;;;;;;0.40;0.40;;;;;;;5.59;96.94;100531.44;5015358;28;20931;-56
2023/01/30 10:31:42;;;;;;;0.50;0.50;;;;;;;5.49;97.18;100527.97;5022930;28;20445;-56
2023/01/30 10:34:23;;;;;;;0.30;0.20;;;;;;;5.54;97.93;100526.19;5013172;28;20513;-56
2023/01/30 10:37:15;;;;;;;0.60;0.40;;;;;;;5.64;97.85;100529.66;5032445;28;20937;-56
2023/01/30 10:39:57;;;;;;;0.50;0.37;;;;;;;5.85;96.66;100521.63;5012748;28;20463;-57
2023/01/30 10:42:34;;;;;;;0.30;0.20;;;;;;;5.78;97.97;100519.03;5031305;28;21065;-57
2023/01/30 10:45:10;;;;;;;0.20;0.20;;;;;;;6.05;96.88;100510.13;5019284;28;20450;-57
2023/01/30 10:47:42;;;;;;;0.30;0.20;;;;;;;6.08;96.46;100510.97;5032709;28;20932;-57
2023/01/30 10:50:17;;;;;;;0.30;0.20;;;;;;;6.04;97.30;100506.63;5032825;28;20505;-57
2023/01/30 10:52:56;;;;;;;0.47;0.47;;;;;;;6.01;97.83;100506.59;5030582;28;20830;-57
2023/01/30 10:55:31;;;;;;;0.43;0.40;;;;;;;6.25;97.13;100492.38;5019371;28;20509;-56
2023/01/30 10:58:03;;;;;;;0.20;0.20;;;;;;;6.32;97.96;100477.38;5032516;28;20448;-57
2023/01/30 11:00:54;;;;;;;0.30;0.27;;;;;;;6.51;96.95;100484.22;5032111;28;20456;-57
2023/01/30 11:03:34;;;;;;;0.30;0.30;;;;;;;6.68;96.83;100477.03;5032295;28;20491;-57
2023/01/30 11:06:05;;;;;;;0.40;0.30;;;;;;;6.87;95.92;100476.84;5032465;28;20452;-57
2023/01/30 11:08:34;;;;;;;0.30;0.30;;;;;;;6.98;94.98;100486.38;5031775;28;20862;-57
2023/01/30 11:11:19;;;;;;;0.20;0.20;;;;;;;7.14;95.45;100487.13;5027441;28;21028;-56
2023/01/30 11:13:45;;;;;;;0.30;0.30;;;;;;;7.03;95.16;100500.44;5021510;28;21005;-57
2023/01/30 11:16:12;;;;;;;0.63;0.20;;;;;;;6.97;93.99;100499.63;5034145;28;20991;-57
2023/01/30 11:18:47;;;;;;;0.30;0.30;;;;;;;6.79;95.56;100490.13;5035690;28;20451;-57
2023/01/30 11:21:34;;;;;;;0.80;0.40;;;;;;;6.95;95.77;100506.69;5036356;28;20444;-57
2023/01/30 11:24:22;;;;;;;0.30;0.30;;;;;;;6.78;95.41;100509.50;5036369;28;20447;-57
2023/01/30 11:26:51;;;;;;;0.40;0.33;;;;;;;6.69;95.42;100506.94;5036783;28;20451;-57
2023/01/30 11:29:23;;;;;;;0.30;0.20;;;;;;;6.66;95.69;100496.41;5035906;28;20478;-57
2023/01/30 11:31:51;;;;;;;0.60;0.60;;;;;;;6.61;96.40;100487.69;5018297;28;20468;-57
2023/01/30 11:34:20;;;;;;;0.67;0.30;;;;;;;6.64;96.75;100488.50;5023473;28;20447;-58
2023/01/30 11:36:47;;;;;;;0.30;0.20;;;;;;;6.65;96.12;100494.66;5035877;28;20868;-57
2023/01/30 11:39:21;;;;;;;0.37;0.30;;;;;;;6.75;95.95;100489.28;5029699;28;20451;-57
2023/01/30 11:41:54;;;;;;;0.60;0.60;;;;;;;6.83;96.08;100491.84;5013692;28;20486;-57
2023/01/30 11:44:27;;;;;;;0.40;0.30;;;;;;;7.05;95.58;100484.56;5026764;28;20450;-57
2023/01/30 11:46:58;;;;;;;0.30;0.30;;;;;;;7.05;94.99;100474.88;5032993;28;20815;-57
2023/01/30 11:49:34;;;;;;;1.57;0.37;;;;;;;7.13;94.70;100491.53;5018340;28;20447;-56
2023/01/30 11:52:21;;;;;;;0.60;0.50;;;;;;;7.22;94.98;100490.53;5023648;28;20840;-57
2023/01/30 11:54:48;;;;;;;0.50;0.50;;;;;;;7.06;96.82;100503.06;5022471;28;20456;-57